Time;durP1;ratioP1;P1;durP2;ratioP2;P2;SDS_P1;SDS_P2;PMS_P1;PMS_P2;Temp;Humidity;BMP_temperature;BMP_pressure;BME280_temperature;BME280_humidity;BME280_pressure;Samples;Min_cycle;Max_cycle;Signal;HPM_P1;HPM_P2
2021/06/21 00:02:24;;;;;;;17.10;8.55;;;;;;;;;;4275712;33;20134;-70
2021/06/21 00:04:50;;;;;;;15.93;8.77;;;;;;;;;;4275492;33;20305;-70
2021/06/21 00:07:16;;;;;;;12.40;7.87;;;;;;;;;;4262526;33;20130;-70
2021/06/21 00:09:42;;;;;;;10.68;7.75;;;;;;;;;;4275593;33;20656;-70
2021/06/21 00:12:09;;;;;;;18.08;8.65;;;;;;;;;;4262659;33;20131;-69
2021/06/21 00:14:35;;;;;;;11.52;8.57;;;;;;;;;;4275705;33;20116;-69
2021/06/21 00:44:46;;;;;;;7.80;7.00;;;;;;;;;;4326346;27;20424;-68
2021/06/21 00:47:13;;;;;;;8.15;7.25;;;;;;;;;;4262841;33;20119;-69
2021/06/21 00:49:40;;;;;;;11.05;7.57;;;;;;;;;;4262495;33;20101;-68
2021/06/21 00:52:11;;;;;;;11.95;7.00;;;;;;;;;;4261256;33;20113;-68
2021/06/21 00:54:38;;;;;;;9.70;7.07;;;;;;;;;;4261087;33;20476;-68
2021/06/21 00:57:04;;;;;;;8.77;7.07;;;;;;;;;;4248158;33;20303;-68
2021/06/21 00:59:30;;;;;;;8.30;7.10;;;;;;;;;;4260845;33;20081;-69
2021/06/21 01:01:56;;;;;;;10.95;7.45;;;;;;;;;;4247311;33;20131;-69
2021/06/21 01:04:22;;;;;;;14.15;7.62;;;;;;;;;;4260946;33;20097;-69
2021/06/21 01:06:48;;;;;;;11.57;7.80;;;;;;;;;;4261060;33;20594;-69
2021/06/21 01:09:13;;;;;;;10.32;8.20;;;;;;;;;;4247919;33;20119;-69
2021/06/21 01:11:49;;;;;;;16.83;8.57;;;;;;;;;;4236347;33;20116;-69
2021/06/21 01:14:27;;;;;;;16.37;7.82;;;;;;;;;;4247933;33;20539;-70
2021/06/21 01:17:19;;;;;;;10.50;8.57;;;;;;;;;;4235940;33;20101;-69
2021/06/21 01:19:51;;;;;;;13.73;8.20;;;;;;;;;;4237724;33;20105;-69
2021/06/21 01:23:02;;;;;;;11.05;9.45;;;;;;;;;;4260989;33;20472;-70
2021/06/21 01:25:34;;;;;;;11.15;8.10;;;;;;;;;;4249978;33;20123;-69
2021/06/21 01:28:10;;;;;;;14.70;8.05;;;;;;;;;;4260847;33;20191;-69
2021/06/21 01:30:52;;;;;;;10.90;8.10;;;;;;;;;;4248414;33;20183;-69
2021/06/21 01:33:19;;;;;;;14.68;8.35;;;;;;;;;;4260705;33;20496;-69
2021/06/21 01:35:52;;;;;;;16.15;8.50;;;;;;;;;;4236075;33;20113;-68
2021/06/21 01:38:20;;;;;;;9.35;8.45;;;;;;;;;;4236362;33;20145;-69
2021/06/21 01:40:48;;;;;;;13.93;8.20;;;;;;;;;;4235825;33;20531;-68
2021/06/21 01:43:16;;;;;;;10.32;8.18;;;;;;;;;;4235726;33;20213;-71
2021/06/21 01:45:42;;;;;;;13.52;8.82;;;;;;;;;;4236458;33;20104;-70
2021/06/21 01:48:08;;;;;;;13.25;8.52;;;;;;;;;;4247811;33;20162;-70
2021/06/21 01:50:34;;;;;;;11.57;8.48;;;;;;;;;;4235853;33;20524;-69
2021/06/21 01:53:09;;;;;;;13.45;8.00;;;;;;;;;;4235791;33;20124;-70
2021/06/21 01:55:38;;;;;;;15.25;8.57;;;;;;;;;;4235996;33;20100;-69
2021/06/21 01:58:03;;;;;;;13.13;8.43;;;;;;;;;;4236040;33;20096;-70
2021/06/21 02:00:29;;;;;;;15.85;9.00;;;;;;;;;;4235804;33;20104;-70
2021/06/21 02:02:56;;;;;;;14.00;8.82;;;;;;;;;;4260745;33;20120;-70
2021/06/21 02:05:22;;;;;;;12.10;8.25;;;;;;;;;;4247586;33;20101;-70
2021/06/21 02:07:49;;;;;;;10.82;7.93;;;;;;;;;;4247277;33;20104;-70
2021/06/21 02:10:15;;;;;;;11.40;8.40;;;;;;;;;;4247685;33;20100;-69
2021/06/21 02:12:41;;;;;;;12.27;8.65;;;;;;;;;;4235606;33;20548;-68
2021/06/21 02:15:08;;;;;;;15.15;8.60;;;;;;;;;;4235678;33;20239;-69
2021/06/21 02:17:34;;;;;;;16.85;8.45;;;;;;;;;;4260045;33;20116;-69
2021/06/21 02:20:00;;;;;;;15.15;8.70;;;;;;;;;;4235414;33;20212;-68
2021/06/21 02:22:28;;;;;;;12.10;7.50;;;;;;;;;;4260674;33;20130;-69
2021/06/21 02:24:55;;;;;;;9.98;6.50;;;;;;;;;;4260349;33;20096;-68
2021/06/21 02:27:22;;;;;;;9.60;6.40;;;;;;;;;;4247204;33;20112;-68
2021/06/21 02:29:48;;;;;;;11.77;6.32;;;;;;;;;;4235183;33;20192;-68
2021/06/21 02:32:14;;;;;;;8.73;6.28;;;;;;;;;;4247109;33;20508;-68
2021/06/21 02:34:40;;;;;;;12.77;5.80;;;;;;;;;;4259023;33;20518;-68
2021/06/21 02:37:06;;;;;;;7.30;5.80;;;;;;;;;;4235456;33;20108;-68
2021/06/21 02:39:32;;;;;;;7.80;5.82;;;;;;;;;;4260033;33;20203;-68
2021/06/21 02:41:57;;;;;;;7.00;5.60;;;;;;;;;;4260029;33;20128;-68
2021/06/21 02:44:23;;;;;;;6.47;4.95;;;;;;;;;;4246879;33;20126;-70
2021/06/21 02:46:50;;;;;;;6.12;5.35;;;;;;;;;;4259835;33;20130;-67
2021/06/21 02:49:16;;;;;;;7.82;4.93;;;;;;;;;;4260183;33;20097;-68
2021/06/21 02:51:47;;;;;;;13.35;6.20;;;;;;;;;;4235227;33;20239;-68
2021/06/21 02:54:17;;;;;;;8.32;5.50;;;;;;;;;;4246932;33;20097;-68
2021/06/21 02:57:14;;;;;;;8.35;5.45;;;;;;;;;;4247150;33;20643;-70
2021/06/21 02:59:40;;;;;;;6.47;4.82;;;;;;;;;;4246116;33;20497;-69
2021/06/21 03:02:06;;;;;;;12.73;5.10;;;;;;;;;;4223362;33;20448;-67
2021/06/21 03:04:32;;;;;;;10.82;5.03;;;;;;;;;;4234912;33;20464;-69
2021/06/21 03:06:58;;;;;;;12.27;5.93;;;;;;;;;;4246280;33;20104;-69
2021/06/21 03:09:24;;;;;;;8.23;5.47;;;;;;;;;;4232956;33;20113;-69
2021/06/21 03:11:51;;;;;;;10.40;5.40;;;;;;;;;;4232969;33;20120;-69
2021/06/21 03:14:21;;;;;;;8.38;5.53;;;;;;;;;;4244685;33;20124;-68
2021/06/21 03:16:47;;;;;;;8.35;5.82;;;;;;;;;;4244670;33;20124;-69
2021/06/21 03:19:13;;;;;;;12.45;5.68;;;;;;;;;;4244564;33;20129;-69
2021/06/21 03:21:42;;;;;;;15.38;6.22;;;;;;;;;;4232935;33;20120;-69
2021/06/21 03:24:12;;;;;;;7.30;5.20;;;;;;;;;;4246723;33;20123;-68
2021/06/21 03:26:37;;;;;;;8.77;5.95;;;;;;;;;;4259721;33;20198;-69
2021/06/21 03:29:11;;;;;;;12.90;5.45;;;;;;;;;;4259705;33;20204;-69
2021/06/21 03:31:37;;;;;;;9.45;5.53;;;;;;;;;;4234790;33;20239;-69
2021/06/21 03:34:03;;;;;;;10.52;4.47;;;;;;;;;;4246266;33;20112;-69
2021/06/21 03:36:29;;;;;;;10.07;4.85;;;;;;;;;;4259417;33;20218;-68
2021/06/21 03:38:55;;;;;;;10.20;5.10;;;;;;;;;;4259549;33;20116;-73
2021/06/21 03:41:21;;;;;;;6.72;5.28;;;;;;;;;;4260899;33;20222;-69
2021/06/21 03:43:47;;;;;;;9.88;5.45;;;;;;;;;;4261621;33;20117;-70
2021/06/21 03:46:13;;;;;;;13.75;5.43;;;;;;;;;;4261801;33;20122;-69
2021/06/21 03:48:39;;;;;;;8.70;4.95;;;;;;;;;;4236932;33;20128;-68
2021/06/21 03:51:06;;;;;;;14.57;5.05;;;;;;;;;;4248746;33;20433;-67
2021/06/21 03:53:32;;;;;;;9.88;4.60;;;;;;;;;;4261765;33;20276;-67
2021/06/21 03:55:58;;;;;;;5.68;4.50;;;;;;;;;;4248694;33;20119;-68
2021/06/21 03:58:23;;;;;;;17.95;5.53;;;;;;;;;;4261817;33;20132;-67
2021/06/21 04:00:49;;;;;;;10.52;4.60;;;;;;;;;;4261668;33;20146;-68
2021/06/21 04:03:16;;;;;;;9.10;5.18;;;;;;;;;;4248347;33;20100;-67
2021/06/21 04:05:42;;;;;;;7.70;4.43;;;;;;;;;;4261439;33;20192;-67
2021/06/21 04:08:12;;;;;;;4.85;4.00;;;;;;;;;;4261680;33;20125;-67
2021/06/21 04:10:39;;;;;;;7.35;4.68;;;;;;;;;;4261449;33;20120;-67
2021/06/21 04:13:05;;;;;;;9.45;4.55;;;;;;;;;;4261509;33;20123;-67
2021/06/21 04:15:31;;;;;;;8.30;4.20;;;;;;;;;;4261882;33;20116;-68
2021/06/21 04:17:58;;;;;;;14.35;4.37;;;;;;;;;;4248573;33;20119;-67
2021/06/21 04:20:24;;;;;;;8.80;4.43;;;;;;;;;;4261535;33;20536;-67
2021/06/21 04:22:50;;;;;;;11.90;5.65;;;;;;;;;;4261381;33;20097;-67
2021/06/21 04:25:17;;;;;;;7.57;4.20;;;;;;;;;;4261526;33;20164;-68
2021/06/21 04:27:43;;;;;;;6.37;5.10;;;;;;;;;;4261354;33;20100;-67
2021/06/21 04:30:10;;;;;;;9.70;4.30;;;;;;;;;;4261822;33;20100;-67
2021/06/21 04:32:36;;;;;;;6.40;4.07;;;;;;;;;;4248392;33;20117;-67
2021/06/21 04:35:02;;;;;;;10.27;4.72;;;;;;;;;;4261537;33;20123;-68
2021/06/21 04:37:28;;;;;;;10.60;5.53;;;;;;;;;;4261188;33;20128;-68
2021/06/21 04:39:54;;;;;;;15.60;5.22;;;;;;;;;;4248453;33;20170;-67
2021/06/21 04:42:20;;;;;;;7.15;4.85;;;;;;;;;;4248005;33;20210;-67
2021/06/21 04:44:46;;;;;;;16.15;4.50;;;;;;;;;;4261031;33;20096;-68
2021/06/21 04:47:12;;;;;;;8.70;3.90;;;;;;;;;;4247920;33;20184;-68
2021/06/21 04:49:38;;;;;;;11.70;4.57;;;;;;;;;;4247931;33;20101;-68
2021/06/21 04:52:07;;;;;;;7.97;4.07;;;;;;;;;;4260968;33;20100;-68
2021/06/21 04:54:33;;;;;;;5.90;4.47;;;;;;;;;;4248484;33;20460;-69
2021/06/21 04:56:59;;;;;;;9.52;4.25;;;;;;;;;;4236289;33;20120;-69
2021/06/21 04:59:25;;;;;;;6.32;4.57;;;;;;;;;;4247888;33;20753;-69
2021/06/21 05:01:51;;;;;;;15.15;4.18;;;;;;;;;;4261012;33;20120;-69
2021/06/21 05:04:16;;;;;;;11.18;3.80;;;;;;;;;;4261129;33;20092;-69
2021/06/21 05:06:42;;;;;;;9.70;4.05;;;;;;;;;;4260924;33;20096;-69
2021/06/21 05:09:09;;;;;;;6.47;4.18;;;;;;;;;;4236162;33;20111;-68
2021/06/21 05:11:35;;;;;;;7.00;4.32;;;;;;;;;;4261068;33;20108;-69
2021/06/21 05:14:01;;;;;;;8.98;4.93;;;;;;;;;;4260885;33;20116;-67
2021/06/21 05:16:28;;;;;;;10.18;4.65;;;;;;;;;;4261194;33;20215;-68
2021/06/21 05:18:54;;;;;;;7.95;4.35;;;;;;;;;;4261026;33;20128;-68
2021/06/21 05:21:19;;;;;;;7.28;4.37;;;;;;;;;;4247852;33;20550;-68
2021/06/21 05:23:46;;;;;;;13.65;4.75;;;;;;;;;;4248216;33;20128;-68
2021/06/21 05:26:12;;;;;;;6.50;4.47;;;;;;;;;;4261175;33;20219;-68
2021/06/21 05:28:38;;;;;;;12.88;5.65;;;;;;;;;;4248091;33;20103;-68
2021/06/21 05:31:04;;;;;;;8.05;4.80;;;;;;;;;;4260892;33;20128;-67
2021/06/21 05:33:30;;;;;;;16.48;5.30;;;;;;;;;;4260553;33;20116;-68
2021/06/21 05:35:56;;;;;;;6.22;4.53;;;;;;;;;;4260773;33;20124;-68
2021/06/21 05:38:21;;;;;;;7.30;4.60;;;;;;;;;;4260680;33;20125;-68
2021/06/21 05:40:47;;;;;;;11.25;4.57;;;;;;;;;;4260526;33;20139;-68
2021/06/21 05:43:13;;;;;;;9.48;5.18;;;;;;;;;;4260274;33;20592;-68
2021/06/21 05:45:39;;;;;;;7.25;5.03;;;;;;;;;;4247523;33;20151;-68
2021/06/21 05:48:06;;;;;;;8.25;4.57;;;;;;;;;;4260879;33;20543;-68
2021/06/21 05:50:32;;;;;;;10.77;4.60;;;;;;;;;;4260448;33;20104;-68
2021/06/21 05:52:57;;;;;;;9.30;5.20;;;;;;;;;;4247314;33;20092;-68
2021/06/21 05:55:24;;;;;;;8.00;5.93;;;;;;;;;;4260556;33;20536;-68
2021/06/21 05:57:53;;;;;;;10.73;6.00;;;;;;;;;;4260643;33;20187;-68
2021/06/21 06:00:20;;;;;;;6.40;4.90;;;;;;;;;;4260847;33;20119;-68
2021/06/21 06:02:47;;;;;;;15.10;5.45;;;;;;;;;;4260053;33;20089;-68
2021/06/21 06:05:13;;;;;;;9.50;4.72;;;;;;;;;;4260754;33;20105;-68
2021/06/21 06:07:39;;;;;;;6.35;4.90;;;;;;;;;;4260349;33;20124;-68
2021/06/21 06:10:06;;;;;;;8.13;5.15;;;;;;;;;;4260809;33;20251;-68
2021/06/21 06:12:32;;;;;;;6.12;4.80;;;;;;;;;;4260150;33;20608;-68
2021/06/21 06:14:58;;;;;;;11.90;5.07;;;;;;;;;;4247609;33;20151;-68
2021/06/21 06:17:24;;;;;;;7.70;5.47;;;;;;;;;;4260344;33;20230;-68
2021/06/21 06:19:50;;;;;;;6.72;5.18;;;;;;;;;;4260490;33;20400;-68
2021/06/21 06:22:16;;;;;;;7.20;4.75;;;;;;;;;;4260281;33;20127;-68
2021/06/21 06:24:41;;;;;;;9.63;4.95;;;;;;;;;;4260407;33;20111;-68
2021/06/21 06:27:07;;;;;;;10.15;5.20;;;;;;;;;;4260417;33;20182;-67
2021/06/21 06:29:33;;;;;;;8.15;5.03;;;;;;;;;;4260473;33;20231;-67
2021/06/21 06:32:00;;;;;;;7.53;5.28;;;;;;;;;;4260723;33;20112;-68
2021/06/21 06:34:26;;;;;;;8.98;5.35;;;;;;;;;;4260269;33;20100;-67
2021/06/21 06:36:52;;;;;;;6.25;5.65;;;;;;;;;;4260640;33;20124;-68
2021/06/21 06:39:18;;;;;;;6.62;4.87;;;;;;;;;;4260326;33;20108;-68
2021/06/21 06:41:44;;;;;;;9.23;5.10;;;;;;;;;;4260453;33;20223;-68
2021/06/21 06:44:10;;;;;;;8.60;4.75;;;;;;;;;;4246929;33;20165;-68
2021/06/21 06:46:36;;;;;;;6.43;5.50;;;;;;;;;;4247074;33;20124;-69
2021/06/21 06:49:02;;;;;;;4.93;4.43;;;;;;;;;;4260235;33;20519;-68
2021/06/21 06:51:32;;;;;;;6.12;5.20;;;;;;;;;;4246960;33;20132;-68
2021/06/21 06:56:59;;;;;;;12.63;5.12;;;;;;;;;;4259999;33;20104;-68
2021/06/21 06:59:31;;;;;;;10.68;5.10;;;;;;;;;;4248736;33;20112;-68
2021/06/21 07:01:57;;;;;;;6.30;5.20;;;;;;;;;;4259868;33;20116;-68
2021/06/21 07:04:24;;;;;;;8.50;4.47;;;;;;;;;;4259786;33;20116;-68
2021/06/21 07:06:49;;;;;;;7.85;4.62;;;;;;;;;;4246878;33;20214;-68
2021/06/21 07:09:15;;;;;;;11.93;5.05;;;;;;;;;;4235127;33;20528;-68
2021/06/21 07:11:41;;;;;;;7.50;4.75;;;;;;;;;;4246701;33;20207;-68
2021/06/21 07:14:08;;;;;;;6.25;4.70;;;;;;;;;;4259666;33;20549;-68
2021/06/21 07:16:34;;;;;;;5.20;4.65;;;;;;;;;;4261695;33;20120;-68
2021/06/21 07:19:00;;;;;;;9.00;4.95;;;;;;;;;;4237268;33;20127;-68
2021/06/21 07:21:26;;;;;;;7.20;5.12;;;;;;;;;;4262175;33;20455;-68
2021/06/21 07:23:52;;;;;;;6.25;5.18;;;;;;;;;;4261818;33;20143;-68
2021/06/21 07:26:18;;;;;;;7.78;4.87;;;;;;;;;;4248775;33;20172;-68
2021/06/21 07:28:44;;;;;;;5.97;4.15;;;;;;;;;;4262100;33;20101;-68
2021/06/21 07:31:10;;;;;;;5.82;4.43;;;;;;;;;;4261858;33;20128;-68
2021/06/21 07:33:36;;;;;;;5.07;4.53;;;;;;;;;;4261594;33;20195;-68
2021/06/21 07:36:02;;;;;;;8.45;5.18;;;;;;;;;;4261756;33;20108;-68
2021/06/21 07:38:28;;;;;;;9.55;4.80;;;;;;;;;;4261765;33;20116;-68
2021/06/21 07:40:54;;;;;;;6.30;4.50;;;;;;;;;;4248511;33;20492;-68
2021/06/21 07:43:20;;;;;;;11.07;5.45;;;;;;;;;;4261474;33;20112;-68
2021/06/21 07:45:47;;;;;;;12.00;5.00;;;;;;;;;;4261564;33;20139;-67
2021/06/21 07:48:13;;;;;;;12.88;4.70;;;;;;;;;;4248572;33;20093;-68
2021/06/21 07:50:39;;;;;;;7.93;4.50;;;;;;;;;;4261613;33;20184;-68
2021/06/21 07:53:06;;;;;;;6.97;4.72;;;;;;;;;;4261681;33;20115;-68
2021/06/21 07:55:33;;;;;;;8.85;5.00;;;;;;;;;;4261674;33;20120;-68
2021/06/21 07:57:59;;;;;;;7.65;4.90;;;;;;;;;;4261547;33;20155;-68
2021/06/21 08:00:25;;;;;;;6.25;4.80;;;;;;;;;;4261731;33;20457;-68
2021/06/21 08:02:52;;;;;;;5.93;4.22;;;;;;;;;;4248717;33;20097;-68
2021/06/21 08:05:18;;;;;;;6.97;4.32;;;;;;;;;;4261584;33;20093;-68
2021/06/21 08:07:44;;;;;;;5.40;4.32;;;;;;;;;;4261472;33;20099;-68
2021/06/21 08:10:11;;;;;;;5.47;4.90;;;;;;;;;;4261648;33;20135;-68
2021/06/21 08:12:37;;;;;;;4.60;3.95;;;;;;;;;;4261525;33;20127;-68
2021/06/21 08:15:05;;;;;;;9.43;5.10;;;;;;;;;;4248430;33;20156;-68
2021/06/21 08:17:31;;;;;;;8.20;4.55;;;;;;;;;;4261474;33;20615;-68
2021/06/21 08:19:56;;;;;;;5.47;4.97;;;;;;;;;;4261679;33;20084;-68
2021/06/21 08:22:22;;;;;;;6.87;4.30;;;;;;;;;;4261624;33;20135;-68
2021/06/21 08:24:52;;;;;;;7.80;5.62;;;;;;;;;;4261510;33;20121;-68
2021/06/21 08:27:18;;;;;;;5.20;4.55;;;;;;;;;;4261120;33;20131;-68
2021/06/21 08:29:44;;;;;;;5.80;4.05;;;;;;;;;;4261499;33;20118;-68
2021/06/21 08:32:11;;;;;;;4.97;4.55;;;;;;;;;;4261462;33;20449;-68
2021/06/21 08:34:38;;;;;;;6.12;4.43;;;;;;;;;;4261337;33;20105;-68
2021/06/21 08:37:04;;;;;;;6.20;4.40;;;;;;;;;;4261402;33;20175;-68
2021/06/21 08:39:30;;;;;;;7.07;4.50;;;;;;;;;;4248193;33;20183;-68
2021/06/21 08:41:57;;;;;;;5.30;4.53;;;;;;;;;;4261599;33;20215;-68
2021/06/21 08:44:23;;;;;;;6.78;4.45;;;;;;;;;;4261032;33;20111;-68
2021/06/21 08:46:49;;;;;;;5.12;4.62;;;;;;;;;;4261243;33;20288;-68
2021/06/21 08:49:15;;;;;;;9.00;4.32;;;;;;;;;;4261255;33;20122;-68
2021/06/21 08:51:42;;;;;;;7.25;4.78;;;;;;;;;;4236724;33;20124;-68
2021/06/21 08:54:07;;;;;;;6.68;5.00;;;;;;;;;;4261382;33;20134;-68
2021/06/21 08:56:34;;;;;;;8.50;4.75;;;;;;;;;;4261293;33;20548;-68
2021/06/21 08:59:04;;;;;;;6.90;4.60;;;;;;;;;;4261192;33;20128;-68
2021/06/21 09:01:30;;;;;;;7.47;4.72;;;;;;;;;;4261176;33;20128;-68
2021/06/21 09:03:56;;;;;;;6.55;4.28;;;;;;;;;;4236358;33;20555;-68
2021/06/21 09:06:23;;;;;;;8.77;5.50;;;;;;;;;;4248187;33;20227;-68
2021/06/21 09:08:56;;;;;;;6.85;4.37;;;;;;;;;;4247927;33;20818;-68
2021/06/21 09:11:47;;;;;;;7.35;4.28;;;;;;;;;;4261239;33;20116;-68
2021/06/21 09:14:25;;;;;;;6.20;4.60;;;;;;;;;;4260805;33;20128;-68
2021/06/21 09:17:01;;;;;;;6.55;4.30;;;;;;;;;;4247872;33;20188;-68
2021/06/21 09:19:28;;;;;;;6.28;4.90;;;;;;;;;;4260875;33;20112;-68
2021/06/21 09:21:54;;;;;;;5.05;3.62;;;;;;;;;;4247819;33;20139;-68
2021/06/21 09:24:27;;;;;;;5.10;4.05;;;;;;;;;;4247761;33;20520;-68
2021/06/21 09:26:54;;;;;;;7.40;4.28;;;;;;;;;;4261294;33;20081;-68
2021/06/21 09:29:41;;;;;;;22.35;5.80;;;;;;;;;;4261002;33;20259;-68
2021/06/21 09:32:07;;;;;;;10.73;4.85;;;;;;;;;;4248120;33;20119;-68
2021/06/21 09:34:33;;;;;;;7.05;4.25;;;;;;;;;;4247808;33;20515;-68
2021/06/21 09:37:25;;;;;;;7.70;4.43;;;;;;;;;;4261019;33;20284;-68
2021/06/21 09:39:51;;;;;;;6.68;3.92;;;;;;;;;;4258883;33;20192;-68
2021/06/21 09:42:26;;;;;;;4.57;4.03;;;;;;;;;;4260987;33;20505;-68
2021/06/21 09:44:53;;;;;;;9.50;5.20;;;;;;;;;;4260708;33;20605;-69
2021/06/21 09:47:34;;;;;;;5.65;4.45;;;;;;;;;;4260764;33;20124;-68
2021/06/21 09:50:17;;;;;;;10.05;4.40;;;;;;;;;;4260821;33;20095;-68
2021/06/21 09:52:46;;;;;;;5.57;4.93;;;;;;;;;;4260684;33;20132;-67
2021/06/21 09:55:24;;;;;;;10.98;5.30;;;;;;;;;;4260737;33;20276;-68
2021/06/21 09:58:09;;;;;;;5.53;5.00;;;;;;;;;;4247896;33;20121;-67
2021/06/21 10:00:37;;;;;;;8.93;5.00;;;;;;;;;;4260582;33;20147;-68
2021/06/21 10:03:12;;;;;;;6.40;5.10;;;;;;;;;;4260635;33;20128;-68
2021/06/21 10:05:40;;;;;;;;;;;;;;;;;;4248228;33;20571;-68
2021/06/21 10:08:07;;;;;;;6.60;5.28;;;;;;;;;;4260744;33;20088;-68
2021/06/21 10:10:33;;;;;;;10.18;5.07;;;;;;;;;;4260855;33;20601;-68
2021/06/21 10:12:59;;;;;;;6.90;5.10;;;;;;;;;;4247363;33;20115;-69
2021/06/21 10:15:25;;;;;;;11.35;5.15;;;;;;;;;;4260594;33;20509;-67
2021/06/21 10:17:51;;;;;;;5.68;5.10;;;;;;;;;;4260432;33;20100;-68
2021/06/21 10:20:17;;;;;;;6.72;5.47;;;;;;;;;;4260573;33;20101;-68
2021/06/21 10:22:43;;;;;;;7.15;5.70;;;;;;;;;;4260461;33;20147;-68
2021/06/21 10:25:10;;;;;;;5.87;5.28;;;;;;;;;;4247681;33;20556;-68
2021/06/21 10:27:41;;;;;;;7.90;5.62;;;;;;;;;;4260062;33;20208;-67
2021/06/21 10:30:12;;;;;;;8.32;5.95;;;;;;;;;;4260362;33;20112;-68
2021/06/21 10:32:38;;;;;;;8.38;5.40;;;;;;;;;;4260627;33;20460;-68
2021/06/21 10:35:05;;;;;;;9.02;5.50;;;;;;;;;;4236016;33;20120;-68
2021/06/21 10:37:31;;;;;;;7.60;4.28;;;;;;;;;;4259967;33;20165;-68
2021/06/21 10:40:03;;;;;;;8.73;4.43;;;;;;;;;;4247077;33;20152;-68
2021/06/21 10:42:37;;;;;;;5.60;5.00;;;;;;;;;;4260064;33;20302;-68
2021/06/21 10:45:05;;;;;;;7.62;4.85;;;;;;;;;;4260051;33;20539;-67
2021/06/21 10:47:35;;;;;;;9.35;5.18;;;;;;;;;;4246952;33;20132;-68
2021/06/21 10:50:11;;;;;;;6.25;4.65;;;;;;;;;;4262928;33;20184;-68
2021/06/21 10:52:56;;;;;;;4.97;4.37;;;;;;;;;;4264829;33;20197;-68
2021/06/21 10:55:25;;;;;;;5.33;4.30;;;;;;;;;;4251659;33;20095;-68
2021/06/21 10:57:53;;;;;;;8.52;4.45;;;;;;;;;;4264402;33;20108;-67
2021/06/21 11:00:20;;;;;;;5.28;4.78;;;;;;;;;;4251627;33;20505;-68
2021/06/21 11:02:46;;;;;;;5.78;4.93;;;;;;;;;;4264672;33;20093;-67
2021/06/21 11:05:30;;;;;;;4.90;4.40;;;;;;;;;;4264874;33;20111;-67
2021/06/21 11:08:12;;;;;;;6.07;3.97;;;;;;;;;;4253374;33;20104;-67
2021/06/21 11:10:38;;;;;;;5.78;5.18;;;;;;;;;;4264567;33;20112;-67
2021/06/21 11:13:36;;;;;;;5.47;4.57;;;;;;;;;;4251372;33;20104;-67
2021/06/21 11:16:19;;;;;;;5.30;4.35;;;;;;;;;;4264479;33;20132;-67
2021/06/21 11:19:21;;;;;;;7.00;4.70;;;;;;;;;;4264276;33;20203;-68
2021/06/21 11:22:00;;;;;;;5.50;4.45;;;;;;;;;;4262166;33;20111;-68
2021/06/21 11:24:36;;;;;;;10.02;5.95;;;;;;;;;;4251575;33;20123;-67
2021/06/21 11:27:06;;;;;;;6.78;4.95;;;;;;;;;;4264252;33;20127;-68
2021/06/21 11:29:34;;;;;;;5.25;4.35;;;;;;;;;;4251404;33;20194;-68
2021/06/21 11:32:02;;;;;;;4.87;4.00;;;;;;;;;;4264362;33;20452;-68
2021/06/21 11:34:47;;;;;;;5.70;4.82;;;;;;;;;;4264265;33;20107;-68
2021/06/21 11:37:30;;;;;;;7.25;5.00;;;;;;;;;;4251493;33;20123;-68
2021/06/21 11:40:11;;;;;;;8.70;4.07;;;;;;;;;;4264503;33;20124;-68
2021/06/21 11:42:37;;;;;;;7.95;4.60;;;;;;;;;;4264251;33;20421;-68
2021/06/21 11:45:03;;;;;;;9.80;5.60;;;;;;;;;;4239241;33;20200;-68
2021/06/21 11:47:30;;;;;;;5.25;4.72;;;;;;;;;;4264138;33;20456;-68
2021/06/21 11:50:12;;;;;;;4.70;4.20;;;;;;;;;;4264240;33;20120;-68
2021/06/21 11:52:38;;;;;;;5.05;4.30;;;;;;;;;;4264192;33;20116;-68
2021/06/21 11:55:17;;;;;;;11.02;4.40;;;;;;;;;;4250983;33;20529;-68
2021/06/21 11:57:47;;;;;;;6.72;4.60;;;;;;;;;;4264028;33;20148;-68
2021/06/21 12:00:17;;;;;;;4.57;3.65;;;;;;;;;;4250669;33;20112;-68
2021/06/21 12:02:43;;;;;;;7.72;4.90;;;;;;;;;;4261147;33;20226;-68
2021/06/21 12:05:10;;;;;;;6.97;3.05;;;;;;;;;;4248646;33;20112;-68
2021/06/21 12:07:37;;;;;;;5.28;4.78;;;;;;;;;;4261336;33;20184;-68
2021/06/21 12:10:11;;;;;;;5.32;4.55;;;;;;;;;;4248654;33;20124;-68
2021/06/21 12:12:38;;;;;;;6.82;4.45;;;;;;;;;;4248393;33;20386;-68
2021/06/21 12:15:05;;;;;;;4.45;4.05;;;;;;;;;;4248244;33;20116;-68
2021/06/21 12:17:31;;;;;;;6.55;5.00;;;;;;;;;;4247918;33;20116;-68
2021/06/21 12:20:19;;;;;;;6.15;4.70;;;;;;;;;;4261498;33;20231;-68
2021/06/21 12:22:56;;;;;;;7.53;4.78;;;;;;;;;;4261566;33;21141;-68
2021/06/21 12:25:39;;;;;;;5.10;3.80;;;;;;;;;;4261427;33;20116;-68
2021/06/21 12:28:15;;;;;;;5.30;4.80;;;;;;;;;;4261323;33;20105;-67
2021/06/21 12:30:46;;;;;;;6.35;5.12;;;;;;;;;;4261227;33;20104;-67
2021/06/21 12:33:32;;;;;;;7.03;4.70;;;;;;;;;;4261396;33;20096;-67
2021/06/21 12:36:17;;;;;;;6.53;4.25;;;;;;;;;;4261377;33;20179;-67
2021/06/21 12:38:56;;;;;;;;;;;;;;;;;;4261492;33;20117;-67
2021/06/21 12:41:25;;;;;;;5.25;4.50;;;;;;;;;;4261181;33;19974;-67
2021/06/21 12:43:55;;;;;;;6.53;4.40;;;;;;;;;;4260830;33;20615;-67
2021/06/21 12:46:22;;;;;;;5.75;4.72;;;;;;;;;;4261197;33;20448;-67
2021/06/21 12:48:48;;;;;;;5.18;4.32;;;;;;;;;;4260788;33;20109;-67
2021/06/21 12:51:16;;;;;;;4.30;3.37;;;;;;;;;;4247881;33;20537;-67
2021/06/21 12:53:44;;;;;;;5.50;4.80;;;;;;;;;;4248150;33;20448;-67
2021/06/21 12:56:21;;;;;;;11.40;5.25;;;;;;;;;;4236446;33;20104;-67
2021/06/21 12:58:47;;;;;;;5.90;4.78;;;;;;;;;;4247889;33;20105;-68
2021/06/21 13:01:30;;;;;;;6.03;4.07;;;;;;;;;;4248146;33;20196;-68
2021/06/21 13:03:57;;;;;;;6.03;4.40;;;;;;;;;;4261209;33;20105;-68
2021/06/21 13:06:38;;;;;;;5.45;4.85;;;;;;;;;;4260993;33;20116;-67
2021/06/21 13:09:12;;;;;;;7.18;4.93;;;;;;;;;;4261101;33;20473;-67
2021/06/21 13:11:51;;;;;;;6.10;4.55;;;;;;;;;;4247923;33;20152;-67
2021/06/21 13:14:19;;;;;;;8.98;4.80;;;;;;;;;;4260048;33;20109;-68
2021/06/21 13:16:44;;;;;;;4.75;3.97;;;;;;;;;;4261088;33;20517;-67
2021/06/21 13:19:18;;;;;;;6.70;4.70;;;;;;;;;;4247681;33;20119;-67
2021/06/21 13:21:50;;;;;;;6.97;4.40;;;;;;;;;;4260820;33;20124;-67
2021/06/21 13:24:36;;;;;;;6.55;4.90;;;;;;;;;;4260692;33;20111;-67
2021/06/21 13:27:03;;;;;;;7.95;4.72;;;;;;;;;;4260778;33;20576;-67
2021/06/21 13:29:30;;;;;;;5.30;4.72;;;;;;;;;;4260831;33;20122;-67
2021/06/21 13:31:57;;;;;;;8.63;5.30;;;;;;;;;;4260734;33;20497;-67
2021/06/21 13:34:43;;;;;;;4.75;4.30;;;;;;;;;;4260586;33;20125;-67
2021/06/21 13:37:11;;;;;;;4.93;4.35;;;;;;;;;;4260561;33;20528;-67
2021/06/21 13:39:37;;;;;;;9.50;4.62;;;;;;;;;;4260863;33;20126;-68
2021/06/21 13:42:07;;;;;;;6.62;5.12;;;;;;;;;;4260589;33;20521;-69
2021/06/21 13:44:34;;;;;;;5.87;4.95;;;;;;;;;;4260316;33;20289;-68
2021/06/21 13:47:00;;;;;;;7.50;4.65;;;;;;;;;;4247512;33;20100;-68
2021/06/21 13:49:26;;;;;;;5.45;4.95;;;;;;;;;;4247589;33;20511;-68
2021/06/21 13:51:53;;;;;;;5.53;4.87;;;;;;;;;;4260689;33;20124;-68
2021/06/21 13:54:19;;;;;;;9.30;5.22;;;;;;;;;;4260867;33;20441;-69
2021/06/21 13:56:45;;;;;;;5.43;4.65;;;;;;;;;;4260224;33;20215;-69
2021/06/21 13:59:13;;;;;;;6.40;4.97;;;;;;;;;;4260663;33;20112;-69
2021/06/21 14:01:52;;;;;;;5.85;4.78;;;;;;;;;;4260535;33;20098;-68
2021/06/21 14:04:19;;;;;;;13.00;5.55;;;;;;;;;;4247291;33;20108;-69
2021/06/21 14:06:46;;;;;;;14.77;5.80;;;;;;;;;;4247141;33;20116;-67
2021/06/21 14:09:14;;;;;;;9.25;4.87;;;;;;;;;;4247326;33;20203;-68
2021/06/21 14:11:39;;;;;;;5.28;4.78;;;;;;;;;;4260416;33;20122;-67
2021/06/21 14:14:05;;;;;;;6.45;5.00;;;;;;;;;;4260197;33;20456;-67
2021/06/21 14:16:31;;;;;;;16.92;5.50;;;;;;;;;;4260374;33;20121;-67
2021/06/21 14:18:58;;;;;;;6.60;4.57;;;;;;;;;;4260755;33;20203;-67
2021/06/21 14:21:28;;;;;;;5.20;4.70;;;;;;;;;;4260730;33;20101;-67
2021/06/21 14:23:57;;;;;;;7.45;4.90;;;;;;;;;;4247482;33;20119;-68
2021/06/21 14:26:23;;;;;;;6.55;4.25;;;;;;;;;;4260236;33;20109;-67
2021/06/21 14:28:49;;;;;;;7.72;5.47;;;;;;;;;;4260038;33;20194;-67
2021/06/21 14:31:15;;;;;;;10.18;5.45;;;;;;;;;;4260160;33;20204;-67
2021/06/21 14:33:41;;;;;;;8.93;4.47;;;;;;;;;;4246898;33;20096;-67
2021/06/21 14:36:08;;;;;;;6.72;4.68;;;;;;;;;;4235291;33;20137;-68
2021/06/21 14:38:34;;;;;;;8.63;5.00;;;;;;;;;;4259943;33;20108;-68
2021/06/21 14:41:00;;;;;;;5.68;4.62;;;;;;;;;;4260123;33;20484;-69
2021/06/21 14:43:25;;;;;;;8.57;4.70;;;;;;;;;;4260091;33;20132;-67
2021/06/21 14:45:51;;;;;;;6.37;4.62;;;;;;;;;;4260034;33;20566;-67
2021/06/21 14:48:18;;;;;;;5.00;4.50;;;;;;;;;;4260159;33;20143;-68
2021/06/21 14:50:44;;;;;;;8.18;4.22;;;;;;;;;;4260089;33;20120;-69
2021/06/21 14:53:10;;;;;;;8.65;4.53;;;;;;;;;;4247171;33;20099;-70
2021/06/21 14:55:36;;;;;;;6.55;4.30;;;;;;;;;;4235253;33;20643;-68
2021/06/21 14:58:03;;;;;;;5.78;4.40;;;;;;;;;;4259880;33;20111;-69
2021/06/21 15:00:30;;;;;;;6.62;4.32;;;;;;;;;;4246992;33;20196;-70
2021/06/21 15:02:56;;;;;;;4.45;3.22;;;;;;;;;;4259814;33;20119;-71
2021/06/21 15:05:22;;;;;;;6.60;4.15;;;;;;;;;;4246986;33;20116;-69
2021/06/21 15:07:49;;;;;;;4.72;4.32;;;;;;;;;;4246774;33;20122;-68
2021/06/21 15:10:20;;;;;;;8.45;4.37;;;;;;;;;;4259852;33;20116;-67
2021/06/21 15:12:46;;;;;;;5.22;4.15;;;;;;;;;;4259860;33;20548;-68
2021/06/21 15:15:15;;;;;;;4.82;4.25;;;;;;;;;;4259848;33;20131;-68
2021/06/21 15:17:41;;;;;;;10.70;4.70;;;;;;;;;;4259661;33;20115;-69
2021/06/21 15:20:09;;;;;;;6.07;4.20;;;;;;;;;;4246984;33;20211;-68
2021/06/21 15:22:35;;;;;;;10.48;4.65;;;;;;;;;;4260160;33;20120;-68